createdAt,value
2019-04-03T00:00:45.989Z,95562.23
2019-04-03T00:01:53.369Z,95562.72
2019-04-03T00:03:00.589Z,95562.38
2019-04-03T00:04:08.876Z,95561.08
2019-04-03T00:05:16.106Z,95558.47
2019-04-03T00:06:23.313Z,95555.05
2019-04-03T00:07:30.523Z,95552.78
2019-04-03T00:08:37.734Z,95551.14
2019-04-03T00:09:44.945Z,95552.45
2019-04-03T00:10:52.185Z,95550.00
2019-04-03T00:11:59.383Z,95550.81
2019-04-03T00:13:06.835Z,95547.09
2019-04-03T00:14:14.058Z,95548.88
2019-04-03T00:15:21.297Z,95551.63
2019-04-03T00:16:28.540Z,95550.81
2019-04-03T00:17:35.767Z,95544.30
2019-04-03T00:18:42.991Z,95548.02
2019-04-03T00:19:50.188Z,95542.15
2019-04-03T00:20:57.396Z,95543.59
2019-04-03T00:22:04.787Z,95538.20
2019-04-03T00:23:12.013Z,95536.57
2019-04-03T00:24:19.263Z,95544.90
2019-04-03T00:25:27.859Z,95539.69
2019-04-03T00:26:35.089Z,95537.57
2019-04-03T00:27:42.310Z,95536.27
2019-04-03T00:28:50.709Z,95537.39
2019-04-03T00:29:58.452Z,95536.42
2019-04-03T00:31:05.682Z,95535.94
2019-04-03T00:32:12.918Z,95535.45
2019-04-03T00:33:20.137Z,95536.61
2019-04-03T00:34:27.344Z,95536.94
2019-04-03T00:35:34.570Z,95535.01
2019-04-03T00:36:41.810Z,95531.10
2019-04-03T00:37:49.083Z,95533.22
2019-04-03T00:38:56.331Z,95532.41
2019-04-03T00:40:03.582Z,95532.73
2019-04-03T00:41:10.869Z,95537.31
2019-04-03T00:42:18.088Z,95537.64
2019-04-03T00:43:26.305Z,95536.98
2019-04-03T00:44:33.515Z,95539.91
2019-04-03T00:45:40.714Z,95540.25
2019-04-03T00:46:47.952Z,95543.19
2019-04-03T00:47:55.707Z,95539.43
2019-04-03T00:49:04.492Z,95532.11
2019-04-03T00:50:11.714Z,95536.98
2019-04-03T00:51:18.939Z,95537.64
2019-04-03T00:52:27.533Z,95540.58
2019-04-03T00:53:35.312Z,95532.92
2019-04-03T00:54:42.507Z,95538.12
2019-04-03T00:55:49.717Z,95534.37
2019-04-03T00:56:57.090Z,95529.65
2019-04-03T00:58:37.844Z,95532.41
2019-04-03T00:59:45.197Z,95531.25
2019-04-03T01:00:52.376Z,95523.89
2019-04-03T01:02:00.666Z,95523.89
2019-04-03T01:03:08.960Z,95523.41
2019-04-03T01:04:16.212Z,95520.80
2019-04-03T01:05:23.438Z,95527.31
2019-04-03T01:06:30.664Z,95531.89
2019-04-03T01:07:37.877Z,95527.50
2019-04-03T01:08:45.132Z,95518.72
2019-04-03T01:09:52.329Z,95518.09
2019-04-03T01:11:00.416Z,95512.25
2019-04-03T01:12:08.521Z,95509.49
2019-04-03T01:13:15.932Z,95515.67
2019-04-03T01:14:23.142Z,95515.03
2019-04-03T01:15:31.663Z,95515.70
2019-04-03T01:16:39.392Z,95518.81
2019-04-03T01:17:46.671Z,95517.70
2019-04-03T01:18:53.874Z,95515.42
2019-04-03T01:20:01.078Z,95515.58
2019-04-03T01:21:08.483Z,95511.03
2019-04-03T01:22:15.694Z,95512.52
2019-04-03T01:23:22.935Z,95512.37
2019-04-03T01:24:30.177Z,95515.64
2019-04-03T01:25:39.144Z,95511.87
2019-04-03T01:26:46.324Z,95509.13
2019-04-03T01:27:53.601Z,95507.33
2019-04-03T01:29:00.826Z,95510.60
2019-04-03T01:30:09.367Z,95509.63
2019-04-03T01:31:16.580Z,95502.97
2019-04-03T01:32:23.913Z,95502.48
2019-04-03T01:33:31.263Z,95500.70
2019-04-03T01:34:38.507Z,95493.55
2019-04-03T01:35:47.463Z,95494.03
2019-04-03T01:36:54.699Z,95496.97
2019-04-03T01:38:01.925Z,95496.15
2019-04-03T01:39:09.360Z,95496.63
2019-04-03T01:40:16.606Z,95499.23
2019-04-03T01:41:23.806Z,95503.63
2019-04-03T01:42:31.007Z,95499.23
2019-04-03T01:43:38.593Z,95498.91
2019-04-03T01:44:45.818Z,95503.14
2019-04-03T01:45:53.077Z,95498.91
2019-04-03T01:47:00.468Z,95504.12
2019-04-03T01:48:07.695Z,95502.81
2019-04-03T01:49:14.932Z,95505.09
2019-04-03T01:50:22.157Z,95497.76
2019-04-03T01:51:29.943Z,95497.42
2019-04-03T01:52:37.528Z,95497.91
2019-04-03T01:53:45.789Z,95501.00
2019-04-03T01:54:52.999Z,95506.36
2019-04-03T01:56:00.239Z,95504.24
2019-04-03T01:57:07.619Z,95507.81
2019-04-03T01:58:14.913Z,95506.19
2019-04-03T01:59:22.139Z,95507.97
2019-04-03T02:00:29.364Z,95506.52
2019-04-03T02:01:38.674Z,95507.98
2019-04-03T02:02:45.648Z,95508.43
2019-04-03T02:03:52.948Z,95504.50
2019-04-03T02:05:00.202Z,95504.50
2019-04-03T02:06:07.431Z,95500.41
2019-04-03T02:07:15.163Z,95500.23
2019-04-03T02:08:23.714Z,95499.08
2019-04-03T02:09:31.143Z,95498.27
2019-04-03T02:10:38.342Z,95505.25
2019-04-03T02:11:45.631Z,95495.81
2019-04-03T02:12:52.853Z,95498.93
2019-04-03T02:14:00.245Z,95499.72
2019-04-03T02:15:07.634Z,95501.53
2019-04-03T02:16:14.889Z,95499.23
2019-04-03T02:17:24.074Z,95500.23
2019-04-03T02:18:31.040Z,95504.14
2019-04-03T02:19:38.251Z,95501.20
2019-04-03T02:20:45.504Z,95505.59
2019-04-03T02:21:52.739Z,95503.95
2019-04-03T02:23:00.572Z,95504.59
2019-04-03T02:24:07.940Z,95507.83
2019-04-03T02:25:15.259Z,95509.58
2019-04-03T02:26:22.470Z,95513.00
2019-04-03T02:27:29.686Z,95511.17
2019-04-03T02:28:36.906Z,95509.20
2019-04-03T02:29:44.120Z,95507.39
2019-04-03T02:30:51.351Z,95501.06
2019-04-03T02:31:59.895Z,95505.45
2019-04-03T02:33:07.106Z,95503.33
2019-04-03T02:34:14.312Z,95507.38
2019-04-03T02:35:21.507Z,95507.38
2019-04-03T02:36:28.937Z,95503.00
2019-04-03T02:37:36.262Z,95505.75
2019-04-03T02:38:43.499Z,95500.55
2019-04-03T02:39:51.774Z,95495.83
2019-04-03T02:40:58.972Z,95495.00
2019-04-03T02:42:08.863Z,95498.09
2019-04-03T02:43:15.567Z,95492.89
2019-04-03T02:44:22.927Z,95491.59
2019-04-03T02:45:30.156Z,95493.22
2019-04-03T02:46:37.437Z,95488.98
2019-04-03T02:47:44.971Z,95490.28
2019-04-03T02:48:52.349Z,95485.08
2019-04-03T02:49:59.586Z,95488.98
2019-04-03T02:51:06.808Z,95477.77
2019-04-03T02:52:14.652Z,95485.08
2019-04-03T02:53:22.929Z,95483.45
2019-04-03T02:54:35.519Z,95480.52
2019-04-03T02:55:42.504Z,95484.41
2019-04-03T02:56:49.719Z,95478.55
2019-04-03T02:57:57.024Z,95476.91
2019-04-03T02:59:04.546Z,95473.16
2019-04-03T03:00:12.177Z,95477.88
2019-04-03T03:01:19.553Z,95477.54
2019-04-03T03:02:26.852Z,95481.44
2019-04-03T03:03:34.118Z,95475.45
2019-04-03T03:04:41.351Z,95477.23
2019-04-03T03:05:48.750Z,95479.51
2019-04-03T03:06:57.130Z,95478.54
2019-04-03T03:08:08.028Z,95473.97
2019-04-03T03:09:15.204Z,95477.88
2019-04-03T03:10:22.465Z,95474.94
2019-04-03T03:11:29.765Z,95476.23
2019-04-03T03:12:39.107Z,95473.63
2019-04-03T03:13:48.058Z,95476.57
2019-04-03T03:14:56.065Z,95475.27
2019-04-03T03:16:03.617Z,95469.73
2019-04-03T03:17:11.911Z,95467.61
2019-04-03T03:18:19.682Z,95472.81
2019-04-03T03:19:27.513Z,95465.98
2019-04-03T03:20:38.517Z,95466.31
2019-04-03T03:21:46.196Z,95464.53
2019-04-03T03:22:55.293Z,95464.53
2019-04-03T03:24:03.359Z,95460.30
2019-04-03T03:25:11.467Z,95458.99
2019-04-03T03:26:19.000Z,95457.69
2019-04-03T03:27:26.695Z,95463.71
2019-04-03T03:28:34.975Z,95457.20
2019-04-03T03:29:43.976Z,95458.99
2019-04-03T03:31:01.032Z,95454.27
2019-04-03T03:32:13.240Z,95454.42
2019-04-03T03:33:27.358Z,95457.98
2019-04-03T03:34:46.271Z,95456.02
2019-04-03T03:35:39.536Z,95451.75
2019-04-03T03:36:40.550Z,95451.60
2019-04-03T03:37:49.019Z,95456.95
2019-04-03T03:38:58.640Z,95456.47
2019-04-03T03:40:06.807Z,95451.41
2019-04-03T03:41:15.298Z,95448.48
2019-04-03T03:42:23.872Z,95446.36
2019-04-03T03:43:31.426Z,95441.98
2019-04-03T03:44:43.214Z,95439.53
2019-04-03T03:45:51.446Z,95434.66
2019-04-03T03:47:01.908Z,95433.84
2019-04-03T03:48:11.103Z,95440.49
2019-04-03T03:49:19.082Z,95439.01
2019-04-03T03:50:27.191Z,95441.91
2019-04-03T03:51:34.987Z,95440.94
2019-04-03T03:52:42.943Z,95445.13
2019-04-03T03:53:50.883Z,95448.36
2019-04-03T03:54:58.663Z,95436.48
2019-04-03T03:56:06.367Z,95436.63
2019-04-03T03:57:14.778Z,95437.92
2019-04-03T03:58:22.596Z,95436.32
2019-04-03T03:59:30.806Z,95439.41
2019-04-03T04:00:38.806Z,95439.55
2019-04-03T04:01:46.288Z,95439.41
2019-04-03T04:02:54.040Z,95444.41
2019-04-03T04:04:01.658Z,95442.92
2019-04-03T04:05:11.336Z,95448.09
2019-04-03T04:06:18.416Z,95445.81
2019-04-03T04:07:26.108Z,95444.33
2019-04-03T04:08:33.631Z,95447.55
2019-04-03T04:09:41.062Z,95442.50
2019-04-03T04:10:48.209Z,95443.80
2019-04-03T04:11:56.023Z,95443.32
2019-04-03T04:13:03.672Z,95447.22
2019-04-03T04:14:11.773Z,95445.44
2019-04-03T04:15:19.622Z,95445.77
2019-04-03T04:16:27.688Z,95444.80
2019-04-03T04:17:35.854Z,95442.55
2019-04-03T04:18:43.201Z,95441.58
2019-04-03T04:19:50.498Z,95438.02
2019-04-03T04:20:58.835Z,95427.62
2019-04-03T04:22:06.048Z,95432.16
2019-04-03T04:23:13.898Z,95429.89
2019-04-03T04:24:21.501Z,95428.11
2019-04-03T04:25:30.559Z,95435.76
2019-04-03T04:26:38.394Z,95430.56
2019-04-03T04:27:46.190Z,95431.86
2019-04-03T04:28:53.466Z,95429.74
2019-04-03T04:30:00.656Z,95425.51
2019-04-03T04:31:07.855Z,95428.92
2019-04-03T04:32:15.433Z,95426.47
2019-04-03T04:33:23.003Z,95425.32
2019-04-03T04:34:30.484Z,95423.54
2019-04-03T04:35:37.765Z,95423.20
2019-04-03T04:36:45.009Z,95420.61
2019-04-03T04:37:52.233Z,95421.42
2019-04-03T04:38:59.459Z,95417.22
2019-04-03T04:40:07.028Z,95421.91
2019-04-03T04:41:14.258Z,95417.22
2019-04-03T04:42:21.451Z,95422.91
2019-04-03T04:43:28.690Z,95416.06
2019-04-03T04:44:35.917Z,95424.20
2019-04-03T04:45:43.312Z,95421.60
2019-04-03T04:46:50.698Z,95423.05
2019-04-03T04:47:59.379Z,95430.36
2019-04-03T04:49:06.635Z,95426.61
2019-04-03T04:50:18.784Z,95423.01
2019-04-03T04:51:26.452Z,95435.81
2019-04-03T04:52:33.763Z,95433.84
2019-04-03T04:53:40.969Z,95428.97
2019-04-03T04:54:48.389Z,95429.45
2019-04-03T04:55:55.572Z,95429.94
2019-04-03T04:57:02.826Z,95435.61
2019-04-03T04:58:11.665Z,95437.88
2019-04-03T04:59:19.047Z,95438.70
2019-04-03T05:00:29.226Z,95439.66
2019-04-03T05:01:35.187Z,95440.14
2019-04-03T05:02:42.412Z,95441.92
2019-04-03T05:03:49.650Z,95447.60
2019-04-03T05:04:56.860Z,95446.78
2019-04-03T05:06:04.160Z,95449.05
2019-04-03T05:07:11.471Z,95459.44
2019-04-03T05:08:18.701Z,95443.80
2019-04-03T05:09:25.958Z,95447.06
2019-04-03T05:10:36.409Z,95448.51
2019-04-03T05:11:42.403Z,95451.06
2019-04-03T05:12:50.668Z,95447.78
2019-04-03T05:13:57.927Z,95451.49
2019-04-03T05:15:05.549Z,95452.45
2019-04-03T05:16:12.795Z,95446.44
2019-04-03T05:17:20.785Z,95451.16
2019-04-03T05:18:29.307Z,95455.05
2019-04-03T05:19:36.887Z,95455.05
2019-04-03T05:20:44.517Z,95458.80
2019-04-03T05:21:52.875Z,95458.18
2019-04-03T05:23:00.739Z,95461.94
2019-04-03T05:24:13.150Z,95454.14
2019-04-03T05:25:16.907Z,95457.22
2019-04-03T05:26:24.172Z,95456.59
2019-04-03T05:27:33.499Z,95452.21
2019-04-03T05:28:40.319Z,95451.25
2019-04-03T05:29:47.912Z,95453.37
2019-04-03T05:30:55.085Z,95451.59
2019-04-03T05:32:02.299Z,95457.94
2019-04-03T05:33:11.237Z,95454.38
2019-04-03T05:34:18.415Z,95452.56
2019-04-03T05:35:25.679Z,95454.68
2019-04-03T05:36:32.922Z,95462.67
2019-04-03T05:37:40.361Z,95461.70
2019-04-03T05:38:47.559Z,95457.80
2019-04-03T05:39:56.197Z,95461.56
2019-04-03T05:41:03.454Z,95455.40
2019-04-03T05:42:10.662Z,95463.05
2019-04-03T05:43:18.149Z,95458.19
2019-04-03T05:44:25.473Z,95457.37
2019-04-03T05:45:34.690Z,95466.32
2019-04-03T05:46:41.607Z,95460.45
2019-04-03T05:47:48.863Z,95464.49
2019-04-03T05:48:56.086Z,95461.08
2019-04-03T05:50:03.535Z,95458.96
2019-04-03T05:51:11.109Z,95457.33
2019-04-03T05:52:18.348Z,95457.80
2019-04-03T05:53:25.664Z,95459.44
2019-04-03T05:54:32.907Z,95456.84
2019-04-03T05:55:41.028Z,95458.14
2019-04-03T05:56:51.320Z,95458.14
2019-04-03T05:57:57.900Z,95453.42
2019-04-03T05:59:05.095Z,95456.36
2019-04-03T06:00:12.567Z,95460.26
2019-04-03T06:01:19.742Z,95455.06
2019-04-03T06:02:27.231Z,95452.95
2019-04-03T06:03:40.846Z,95454.58
2019-04-03T06:04:43.444Z,95458.96
2019-04-03T06:05:50.834Z,95454.25
2019-04-03T06:06:58.062Z,95450.34
2019-04-03T06:08:05.287Z,95454.25
2019-04-03T06:09:12.493Z,95455.55
2019-04-03T06:10:19.740Z,95453.28
2019-04-03T06:11:27.955Z,95449.38
2019-04-03T06:12:36.683Z,95449.72
2019-04-03T06:13:44.327Z,95448.42
2019-04-03T06:14:51.479Z,95447.12
2019-04-03T06:15:58.703Z,95445.19
2019-04-03T06:17:05.925Z,95445.19
2019-04-03T06:18:13.126Z,95446.34
2019-04-03T06:19:21.447Z,95441.97
2019-04-03T06:20:28.673Z,95436.58
2019-04-03T06:21:35.967Z,95441.44
2019-04-03T06:22:51.125Z,95434.42
2019-04-03T06:23:58.593Z,95435.53
2019-04-03T06:25:06.861Z,95436.96
2019-04-03T06:26:14.320Z,95438.55
2019-04-03T06:27:21.644Z,95440.62
2019-04-03T06:28:29.668Z,95436.70
2019-04-03T06:29:36.936Z,95436.18
2019-04-03T06:30:44.756Z,95430.12
2019-04-03T06:31:52.064Z,95435.13
2019-04-03T06:33:01.985Z,95430.58
2019-04-03T06:34:10.071Z,95430.39
2019-04-03T06:35:17.403Z,95424.66
2019-04-03T06:36:24.644Z,95426.11
2019-04-03T06:37:32.244Z,95428.48
2019-04-03T06:38:39.867Z,95430.77
2019-04-03T06:39:47.168Z,95427.50
2019-04-03T06:40:54.387Z,95432.70
2019-04-03T06:42:01.682Z,95425.39
2019-04-03T06:43:09.981Z,95423.61
2019-04-03T06:44:17.325Z,95420.38
2019-04-03T06:45:26.149Z,95427.66
2019-04-03T06:46:33.594Z,95421.98
2019-04-03T06:47:40.839Z,95423.62
2019-04-03T06:48:48.274Z,95429.05
2019-04-03T06:49:55.509Z,95426.78
2019-04-03T06:51:02.764Z,95430.05
2019-04-03T06:52:10.115Z,95422.45
2019-04-03T06:53:17.605Z,95427.84
2019-04-03T06:54:24.879Z,95423.77
2019-04-03T06:55:33.215Z,95429.97
2019-04-03T06:56:41.328Z,95427.56
2019-04-03T06:57:49.107Z,95426.94
2019-04-03T06:58:56.365Z,95422.56
2019-04-03T07:00:03.589Z,95428.44
2019-04-03T07:01:11.910Z,95420.16
2019-04-03T07:02:19.155Z,95422.58
2019-04-03T07:03:26.392Z,95423.73
2019-04-03T07:04:33.672Z,95423.59
2019-04-03T07:05:41.689Z,95425.08
2019-04-03T07:06:49.350Z,95429.16
2019-04-03T07:07:56.602Z,95424.78
2019-04-03T07:09:06.294Z,95423.20
2019-04-03T07:10:24.135Z,95423.69
2019-04-03T07:11:23.923Z,95420.13
2019-04-03T07:12:31.638Z,95418.88
2019-04-03T07:13:38.916Z,95423.30
2019-04-03T07:14:46.156Z,95411.75
2019-04-03T07:15:55.745Z,95416.03
2019-04-03T07:17:05.169Z,95418.66
2019-04-03T07:18:11.497Z,95413.14
2019-04-03T07:19:18.788Z,95420.50
2019-04-03T07:20:26.034Z,95417.27
2019-04-03T07:21:33.291Z,95420.72
2019-04-03T07:22:40.516Z,95418.13
2019-04-03T07:23:48.028Z,95421.39
2019-04-03T07:24:55.301Z,95421.77
2019-04-03T07:26:02.946Z,95417.20
2019-04-03T07:27:14.408Z,95416.27
2019-04-03T07:28:20.336Z,95413.03
2019-04-03T07:29:28.552Z,95421.84
2019-04-03T07:30:35.822Z,95414.19
2019-04-03T07:31:43.051Z,95409.53
2019-04-03T07:32:50.304Z,95409.23
2019-04-03T07:33:58.601Z,95411.05
2019-04-03T07:35:10.149Z,95413.65
2019-04-03T07:36:15.754Z,95411.86
2019-04-03T07:37:22.960Z,95408.62
2019-04-03T07:38:30.170Z,95407.66
2019-04-03T07:39:37.417Z,95405.39
2019-04-03T07:40:44.652Z,95404.91
2019-04-03T07:41:54.433Z,95404.91
2019-04-03T07:43:00.874Z,95410.77
2019-04-03T07:44:08.120Z,95408.50
2019-04-03T07:45:16.136Z,95408.35
2019-04-03T07:46:23.411Z,95405.08
2019-04-03T07:47:34.339Z,95407.53
2019-04-03T07:48:40.696Z,95410.14
2019-04-03T07:49:47.935Z,95405.27
2019-04-03T07:50:55.164Z,95413.41
2019-04-03T07:52:02.583Z,95408.05
2019-04-03T07:53:09.880Z,95406.75
2019-04-03T07:54:17.112Z,95404.81
2019-04-03T07:55:27.713Z,95408.08
2019-04-03T07:56:34.144Z,95405.13
2019-04-03T07:57:41.618Z,95399.78
2019-04-03T07:58:49.177Z,95402.38
2019-04-03T07:59:56.591Z,95394.09
2019-04-03T08:01:03.785Z,95397.51
2019-04-03T08:02:12.808Z,95399.63
2019-04-03T08:03:20.708Z,95400.92
2019-04-03T08:04:29.147Z,95398.32
2019-04-03T08:05:36.813Z,95397.02
2019-04-03T08:06:44.371Z,95394.09
2019-04-03T08:07:52.506Z,95394.42
2019-04-03T08:09:07.665Z,95394.42
2019-04-03T08:10:10.831Z,95395.72
2019-04-03T08:11:18.055Z,95397.17
2019-04-03T08:12:25.562Z,95392.94
2019-04-03T08:13:32.777Z,95392.94
2019-04-03T08:14:41.129Z,95390.34
2019-04-03T08:15:49.134Z,95386.77
2019-04-03T08:16:57.238Z,95384.01
2019-04-03T08:18:04.565Z,95385.48
2019-04-03T08:19:11.949Z,95385.48
2019-04-03T08:20:20.053Z,95381.43
2019-04-03T08:21:28.066Z,95379.48
2019-04-03T08:22:36.916Z,95376.73
2019-04-03T08:23:44.269Z,95375.76
2019-04-03T08:24:53.319Z,95371.67
2019-04-03T08:26:00.669Z,95366.80
2019-04-03T08:27:08.670Z,95372.51
2019-04-03T08:28:16.114Z,95372.02
2019-04-03T08:29:23.335Z,95375.29
2019-04-03T08:30:30.615Z,95370.74
2019-04-03T08:31:37.818Z,95375.31
2019-04-03T08:32:47.699Z,95374.97
2019-04-03T08:33:53.978Z,95370.91
2019-04-03T08:35:03.732Z,95374.33
2019-04-03T08:36:22.587Z,95367.51
2019-04-03T08:37:29.623Z,95375.98
2019-04-03T08:38:27.993Z,95370.61
2019-04-03T08:39:35.240Z,95369.94
2019-04-03T08:40:42.569Z,95375.16
2019-04-03T08:41:49.863Z,95365.55
2019-04-03T08:42:59.403Z,95366.37
2019-04-03T08:44:08.436Z,95368.48
2019-04-03T08:45:16.244Z,95371.58
2019-04-03T08:46:23.441Z,95373.06
2019-04-03T08:47:30.913Z,95370.45
2019-04-03T08:48:38.394Z,95374.36
2019-04-03T08:49:45.704Z,95377.59
2019-04-03T08:50:52.930Z,95378.26
2019-04-03T08:52:00.395Z,95371.92
2019-04-03T08:53:08.759Z,95372.91
2019-04-03T08:54:16.198Z,95368.69
2019-04-03T08:55:23.438Z,95362.65
2019-04-03T08:56:30.665Z,95361.36
2019-04-03T08:57:38.191Z,95363.04
2019-04-03T08:58:45.996Z,95361.23
2019-04-03T08:59:53.349Z,95365.32
2019-04-03T09:01:03.664Z,95357.48
2019-04-03T09:02:12.736Z,95358.80
2019-04-03T09:03:19.543Z,95348.88
2019-04-03T09:04:26.784Z,95352.44
2019-04-03T09:05:34.084Z,95353.91
2019-04-03T09:06:41.296Z,95356.02
2019-04-03T09:07:48.552Z,95360.26
2019-04-03T09:08:58.211Z,95354.56
2019-04-03T09:10:05.377Z,95346.73
2019-04-03T09:11:12.621Z,95351.79
2019-04-03T09:12:19.899Z,95348.54
2019-04-03T09:13:27.174Z,95347.56
2019-04-03T09:14:34.896Z,95349.69
2019-04-03T09:15:42.407Z,95343.00
2019-04-03T09:16:50.038Z,95341.84
2019-04-03T09:17:57.670Z,95339.88
2019-04-03T09:19:04.978Z,95339.89
2019-04-03T09:20:13.865Z,95340.87
2019-04-03T09:21:21.710Z,95340.52
2019-04-03T09:22:29.138Z,95340.19
2019-04-03T09:23:36.530Z,95338.08
2019-04-03T09:24:44.059Z,95340.36
2019-04-03T09:25:51.552Z,95333.98
2019-04-03T09:26:58.837Z,95332.67
2019-04-03T09:28:06.206Z,95334.95
2019-04-03T09:29:13.792Z,95324.20
2019-04-03T09:30:22.062Z,95330.36
2019-04-03T09:31:29.287Z,95328.56
2019-04-03T09:32:37.509Z,95324.81
2019-04-03T09:33:46.440Z,95322.37
2019-04-03T09:34:54.143Z,95328.27
2019-04-03T09:36:03.390Z,95317.99
2019-04-03T09:37:10.275Z,95319.63
2019-04-03T09:38:17.530Z,95316.69
2019-04-03T09:39:25.062Z,95315.38
2019-04-03T09:40:32.282Z,95315.71
2019-04-03T09:41:39.617Z,95309.31
2019-04-03T09:42:46.808Z,95309.48
2019-04-03T09:43:54.703Z,95308.83
2019-04-03T09:45:01.991Z,95309.14
2019-04-03T09:46:09.476Z,95308.30
2019-04-03T09:47:16.809Z,95300.30
2019-04-03T09:48:24.061Z,95300.29
2019-04-03T09:49:31.261Z,95298.16
2019-04-03T09:50:38.515Z,95298.94
2019-04-03T09:51:46.025Z,95296.64
2019-04-03T09:52:54.901Z,95289.58
2019-04-03T09:54:02.144Z,95288.59
2019-04-03T09:55:09.774Z,95297.55
2019-04-03T09:56:17.076Z,95293.41
2019-04-03T09:57:24.540Z,95290.80
2019-04-03T09:58:34.575Z,95292.58
2019-04-03T09:59:40.779Z,95294.50
2019-04-03T10:00:48.051Z,95291.22
2019-04-03T10:01:55.292Z,95286.16
2019-04-03T10:03:05.384Z,95289.39
2019-04-03T10:04:11.471Z,95286.07
2019-04-03T10:05:18.719Z,95284.42
2019-04-03T10:06:25.922Z,95277.41
2019-04-03T10:07:36.336Z,95284.88
2019-04-03T10:08:43.584Z,95279.63
2019-04-03T10:09:53.748Z,95281.23
2019-04-03T10:10:59.855Z,95280.03
2019-04-03T10:12:07.182Z,95282.56
2019-04-03T10:13:14.500Z,95274.67
2019-04-03T10:14:21.735Z,95281.44
2019-04-03T10:15:31.515Z,95277.93
2019-04-03T10:16:38.024Z,95277.38
2019-04-03T10:17:45.504Z,95272.41
2019-04-03T10:18:52.788Z,95273.36
2019-04-03T10:20:00.035Z,95273.51
2019-04-03T10:21:07.282Z,95272.20
2019-04-03T10:22:14.469Z,95271.03
2019-04-03T10:23:21.708Z,95267.22
2019-04-03T10:24:30.986Z,95265.09
2019-04-03T10:25:38.403Z,95268.00
2019-04-03T10:26:45.924Z,95267.02
2019-04-03T10:27:53.218Z,95261.95
2019-04-03T10:29:00.464Z,95268.00
2019-04-03T10:30:11.012Z,95265.88
2019-04-03T10:31:18.312Z,95265.70
2019-04-03T10:32:27.981Z,95264.22
2019-04-03T10:33:34.681Z,95258.92
2019-04-03T10:34:41.911Z,95261.32
2019-04-03T10:35:49.179Z,95250.92
2019-04-03T10:36:56.412Z,95255.27
2019-04-03T10:38:03.739Z,95256.65
2019-04-03T10:39:13.422Z,95249.25
2019-04-03T10:40:23.532Z,95250.20
2019-04-03T10:41:31.514Z,95251.83
2019-04-03T10:42:40.215Z,95241.36
2019-04-03T10:43:47.665Z,95243.66
2019-04-03T10:44:54.956Z,95246.95
2019-04-03T10:46:02.204Z,95239.41
2019-04-03T10:47:09.478Z,95240.22
2019-04-03T10:48:16.769Z,95236.93
2019-04-03T10:49:24.081Z,95233.61
2019-04-03T10:50:31.640Z,95233.25
2019-04-03T10:51:40.941Z,95231.71
2019-04-03T10:52:49.239Z,95235.56
2019-04-03T10:53:56.579Z,95234.39
2019-04-03T10:55:03.920Z,95231.05
2019-04-03T10:56:11.180Z,95230.79
2019-04-03T10:57:18.634Z,95228.28
2019-04-03T10:58:25.993Z,95230.64
2019-04-03T10:59:33.251Z,95220.61
2019-04-03T11:00:40.716Z,95223.67
2019-04-03T11:01:48.167Z,95214.42
2019-04-03T11:02:55.559Z,95213.50
2019-04-03T11:04:02.827Z,95210.92
2019-04-03T11:05:11.021Z,95204.63
2019-04-03T11:06:18.381Z,95210.63
2019-04-03T11:07:25.758Z,95212.85
2019-04-03T11:08:33.076Z,95212.48
2019-04-03T11:09:40.369Z,95213.11
2019-04-03T11:10:47.633Z,95208.86
2019-04-03T11:11:54.911Z,95209.86
2019-04-03T11:13:03.579Z,95206.30
2019-04-03T11:14:11.113Z,95205.30
2019-04-03T11:15:18.554Z,95207.92
2019-04-03T11:16:27.729Z,95203.98
2019-04-03T11:17:35.109Z,95206.30
2019-04-03T11:18:42.520Z,95202.68
2019-04-03T11:19:49.726Z,95200.88
2019-04-03T11:20:56.982Z,95201.19
2019-04-03T11:22:04.225Z,95200.50
2019-04-03T11:23:11.483Z,95198.81
2019-04-03T11:24:19.082Z,95204.47
2019-04-03T11:25:27.467Z,95191.48
2019-04-03T11:26:34.688Z,95196.86
2019-04-03T11:27:44.826Z,95195.48
2019-04-03T11:28:50.843Z,95190.37
2019-04-03T11:29:58.188Z,95191.77
2019-04-03T11:31:05.505Z,95194.64
2019-04-03T11:32:12.952Z,95185.13
2019-04-03T11:33:21.386Z,95187.55
2019-04-03T11:34:28.927Z,95184.13
2019-04-03T11:35:36.215Z,95185.02
2019-04-03T11:36:43.462Z,95178.09
2019-04-03T11:37:50.730Z,95186.33
2019-04-03T11:39:11.062Z,95181.91
2019-04-03T11:40:08.769Z,95178.50
2019-04-03T11:41:19.136Z,95179.24
2019-04-03T11:42:28.668Z,95175.23
2019-04-03T11:43:33.991Z,95171.92
2019-04-03T11:44:41.178Z,95167.27
2019-04-03T11:45:48.384Z,95168.19
2019-04-03T11:46:55.903Z,95163.88
2019-04-03T11:48:03.174Z,95161.48
2019-04-03T11:49:10.485Z,95162.50
2019-04-03T11:50:18.389Z,95150.42
2019-04-03T11:51:28.995Z,95148.00
2019-04-03T11:52:34.658Z,95147.06
2019-04-03T11:53:44.539Z,95151.50
2019-04-03T11:54:52.778Z,95141.34
2019-04-03T11:55:59.763Z,95132.66
2019-04-03T11:57:07.030Z,95139.95
2019-04-03T11:58:14.350Z,95137.31
2019-04-03T11:59:23.709Z,95133.09
2019-04-03T12:00:35.226Z,95138.04
2019-04-03T12:01:43.193Z,95133.70
2019-04-03T12:02:50.562Z,95133.31
2019-04-03T12:03:57.838Z,95119.27
2019-04-03T12:05:05.846Z,95122.70
2019-04-03T12:06:15.678Z,95120.89
2019-04-03T12:07:22.865Z,95118.34
2019-04-03T12:08:32.412Z,95113.02
2019-04-03T12:09:39.699Z,95113.74
2019-04-03T12:10:47.279Z,95109.37
2019-04-03T12:11:55.502Z,95107.05
2019-04-03T12:13:04.191Z,95114.43
2019-04-03T12:14:11.995Z,95113.42
2019-04-03T12:15:21.412Z,95110.08
2019-04-03T12:16:28.191Z,95106.45
2019-04-03T12:17:35.496Z,95101.49
2019-04-03T12:18:42.816Z,95100.28
2019-04-03T12:19:50.063Z,95100.59
2019-04-03T12:20:57.636Z,95098.27
2019-04-03T12:22:04.911Z,95100.77
2019-04-03T12:23:12.190Z,95098.23
2019-04-03T12:24:19.407Z,95094.19
2019-04-03T12:25:26.643Z,95091.87
2019-04-03T12:26:33.854Z,95084.28
2019-04-03T12:27:41.471Z,95083.84
2019-04-03T12:28:50.018Z,95077.98
2019-04-03T12:29:57.381Z,95071.00
2019-04-03T12:31:05.081Z,95063.48
2019-04-03T12:32:12.430Z,95063.67
2019-04-03T12:33:21.227Z,95061.24
2019-04-03T12:34:28.554Z,95064.55
2019-04-03T12:35:35.804Z,95065.05
2019-04-03T12:36:45.199Z,95055.02
2019-04-03T12:37:52.245Z,95057.94
2019-04-03T12:38:59.781Z,95049.03
2019-04-03T12:40:09.825Z,95050.34
2019-04-03T12:41:17.034Z,95052.17
2019-04-03T12:42:24.560Z,95054.70
2019-04-03T12:43:35.008Z,95058.05
2019-04-03T12:44:42.193Z,95051.07
2019-04-03T12:45:49.424Z,95062.55
2019-04-03T12:46:56.818Z,95063.23
2019-04-03T12:48:04.069Z,95058.67
2019-04-03T12:49:11.277Z,95059.38
2019-04-03T12:50:18.743Z,95055.13
2019-04-03T12:51:25.938Z,95056.75
2019-04-03T12:52:33.324Z,95053.61
2019-04-03T12:53:40.657Z,95058.67
2019-04-03T12:54:48.795Z,95061.91
2019-04-03T12:55:58.004Z,95050.97
2019-04-03T12:57:05.650Z,95049.55
2019-04-03T12:58:12.876Z,95048.13
2019-04-03T12:59:20.996Z,95050.55
2019-04-03T13:00:28.560Z,95052.07
2019-04-03T13:01:35.878Z,95048.23
2019-04-03T13:02:43.300Z,95043.98
2019-04-03T13:03:50.911Z,95048.95
2019-04-03T13:05:00.420Z,95043.82
2019-04-03T13:06:09.710Z,95046.13
2019-04-03T13:07:16.206Z,95049.41
2019-04-03T13:08:23.403Z,95045.30
2019-04-03T13:09:30.775Z,95047.56
2019-04-03T13:10:42.698Z,95047.89
2019-04-03T13:11:49.827Z,95042.25
2019-04-03T13:12:57.186Z,95036.55
2019-04-03T13:14:04.884Z,95030.50
2019-04-03T13:15:12.925Z,95028.08
2019-04-03T13:16:21.926Z,95025.45